Time;durP1;ratioP1;P1;durP2;ratioP2;P2;SDS_P1;SDS_P2;PMS_P1;PMS_P2;Temp;Humidity;BMP_temperature;BMP_pressure;BME280_temperature;BME280_humidity;BME280_pressure;Samples;Min_cycle;Max_cycle;Signal;HPM_P1;HPM_P2
2022/01/19 00:01:02;;;;;;;1.10;1.10;;;;;;;-9.84;77.77;99196.72;4934185;29;20075;-84
2022/01/19 00:03:30;;;;;;;0.80;0.80;;;;;;;-9.87;77.71;99175.25;4933992;29;20454;-85
2022/01/19 00:05:57;;;;;;;1.25;1.20;;;;;;;-9.88;77.70;99184.00;4932813;29;20107;-84
2022/01/19 00:08:26;;;;;;;0.90;0.90;;;;;;;-9.87;77.84;99196.97;4927597;29;20059;-86
2022/01/19 00:10:53;;;;;;;1.02;1.02;;;;;;;-9.87;77.72;99193.53;4918086;29;20420;-85
2022/01/19 00:13:21;;;;;;;1.35;1.25;;;;;;;-9.92;77.87;99183.41;4919579;29;20063;-85
2022/01/19 00:15:51;;;;;;;1.10;1.10;;;;;;;-9.90;78.11;99173.69;4919234;29;20519;-85
2022/01/19 00:18:21;;;;;;;0.95;0.95;;;;;;;-9.84;77.95;99180.25;4918851;29;20472;-86
2022/01/19 00:21:03;;;;;;;1.25;1.20;;;;;;;-9.83;78.10;99182.72;4917709;29;20051;-86
2022/01/19 00:23:31;;;;;;;1.30;1.20;;;;;;;-9.83;78.23;99181.88;4918722;29;20341;-85
2022/01/19 00:26:01;;;;;;;1.27;1.20;;;;;;;-9.77;77.85;99181.47;4918618;29;20055;-85
2022/01/19 00:28:28;;;;;;;1.30;1.20;;;;;;;-9.75;77.88;99173.50;4918551;29;20048;-85
2022/01/19 00:30:58;;;;;;;1.30;1.20;;;;;;;-9.68;78.02;99179.94;4918855;29;20108;-85
2022/01/19 00:33:50;;;;;;;1.27;1.20;;;;;;;-9.67;78.00;99185.06;4919099;29;20048;-85
2022/01/19 00:36:21;;;;;;;1.20;1.20;;;;;;;-9.65;77.95;99187.56;4917871;29;20480;-84
2022/01/19 00:38:48;;;;;;;1.10;1.10;;;;;;;-9.62;78.14;99184.72;4928259;29;20044;-85
2022/01/19 00:41:18;;;;;;;0.90;0.90;;;;;;;-9.55;78.20;99177.28;4921848;29;20075;-86
2022/01/19 00:43:47;;;;;;;0.95;0.95;;;;;;;-9.52;78.35;99179.66;4937523;29;20410;-87
2022/01/19 00:46:15;;;;;;;1.00;1.00;;;;;;;-9.54;78.26;99164.09;4936600;29;20059;-85
2022/01/19 00:48:42;;;;;;;1.10;1.10;;;;;;;-9.54;78.14;99181.53;4936888;29;20300;-85
2022/01/19 00:51:12;;;;;;;0.80;0.80;;;;;;;-9.51;78.11;99181.34;4952067;29;20116;-86
2022/01/19 00:53:39;;;;;;;1.10;1.10;;;;;;;-9.49;77.87;99175.06;4937324;29;20103;-85
2022/01/19 00:56:09;;;;;;;1.30;1.20;;;;;;;-9.53;77.92;99184.06;4938150;29;20111;-85
2022/01/19 00:58:36;;;;;;;1.27;1.23;;;;;;;-9.50;78.17;99172.53;4937447;29;20051;-85
2022/01/19 01:01:08;;;;;;;0.90;0.90;;;;;;;-9.45;78.24;99175.66;4936282;29;20570;-85
2022/01/19 01:03:35;;;;;;;0.90;0.90;;;;;;;-9.49;78.23;99174.22;4937019;29;20048;-87
2022/01/19 01:06:02;;;;;;;0.95;0.95;;;;;;;-9.52;77.97;99169.19;4936976;29;20097;-85
2022/01/19 01:08:31;;;;;;;1.00;1.00;;;;;;;-9.53;77.83;99170.16;4951332;29;20051;-84
2022/01/19 01:10:58;;;;;;;1.10;1.10;;;;;;;-9.51;77.59;99170.88;4937472;29;20142;-86
2022/01/19 01:16:32;;;;;;;1.10;1.10;;;;;;;-9.49;77.59;99163.78;4916429;29;20064;-85
2022/01/19 01:19:01;;;;;;;1.10;1.10;;;;;;;-9.50;77.32;99169.94;4917004;29;20056;-84
2022/01/19 01:21:29;;;;;;;1.00;1.00;;;;;;;-9.51;77.25;99181.34;4915542;29;20051;-86
2022/01/19 01:23:56;;;;;;;0.93;0.93;;;;;;;-9.57;77.42;99179.97;4932280;29;20058;-85
2022/01/19 01:26:27;;;;;;;1.00;1.00;;;;;;;-9.55;77.61;99180.72;4916061;29;20511;-87
2022/01/19 01:28:54;;;;;;;0.90;0.90;;;;;;;-9.56;77.38;99173.00;4916267;29;20076;-85
2022/01/19 01:31:21;;;;;;;1.10;1.10;;;;;;;-9.54;77.67;99168.47;4917521;29;20060;-86
2022/01/19 01:33:49;;;;;;;1.10;1.10;;;;;;;-9.45;77.41;99175.66;4916288;29;20091;-85
2022/01/19 01:36:16;;;;;;;1.23;1.13;;;;;;;-9.41;77.70;99166.63;4916184;29;20048;-86
2022/01/19 01:38:43;;;;;;;1.10;1.10;;;;;;;-9.40;77.81;99179.56;4915935;29;20519;-84
2022/01/19 01:41:14;;;;;;;1.10;1.10;;;;;;;-9.43;77.87;99178.97;4916326;29;20444;-85
2022/01/19 01:44:05;;;;;;;1.08;1.08;;;;;;;-9.47;77.66;99177.53;4921075;29;20373;-86
2022/01/19 01:46:55;;;;;;;0.77;0.77;;;;;;;-9.53;77.74;99181.44;4916065;29;20048;-86
2022/01/19 01:49:39;;;;;;;1.05;1.05;;;;;;;-9.51;77.67;99176.94;4917926;29;20472;-85
2022/01/19 01:54:59;;;;;;;1.00;1.00;;;;;;;-9.61;78.26;99173.34;4905316;29;20288;-85
2022/01/19 01:57:26;;;;;;;1.10;1.10;;;;;;;-9.59;78.07;99161.00;4915814;29;20531;-85
2022/01/19 01:59:53;;;;;;;1.13;1.13;;;;;;;-9.62;77.91;99159.44;4917503;29;20503;-85
2022/01/19 02:02:50;;;;;;;0.90;0.90;;;;;;;-9.66;77.96;99152.75;4917070;29;20048;-85
2022/01/19 02:05:22;;;;;;;0.90;0.90;;;;;;;-9.70;78.17;99160.94;4931227;29;20074;-85
2022/01/19 02:08:16;;;;;;;1.00;1.00;;;;;;;-9.73;78.21;99172.44;4915773;29;20601;-85
2022/01/19 02:11:07;;;;;;;1.00;1.00;;;;;;;-9.74;78.37;99172.56;4915390;29;20084;-85
2022/01/19 02:21:58;;;;;;;1.10;1.10;;;;;;;-9.62;78.87;99184.72;4915337;29;20048;-85
2022/01/19 02:24:32;;;;;;;1.02;1.02;;;;;;;-9.66;78.64;99175.44;4915484;29;20052;-85
2022/01/19 02:28:58;;;;;;;0.90;0.90;;;;;;;-9.68;78.79;99175.56;4915637;29;20134;-84
2022/01/19 02:30:48;;;;;;;1.25;1.20;;;;;;;-9.74;78.78;99185.63;4916226;29;20060;-85
2022/01/19 02:41:10;;;;;;;1.30;1.20;;;;;;;-9.66;78.25;99212.03;4916291;29;20511;-85
2022/01/19 02:43:38;;;;;;;1.00;1.00;;;;;;;-9.64;78.16;99216.19;4914280;29;20151;-85
2022/01/19 02:49:16;;;;;;;0.80;0.80;;;;;;;-9.71;78.27;99217.56;4915377;29;20048;-85
2022/01/19 02:51:49;;;;;;;1.00;1.00;;;;;;;-9.77;78.36;99207.59;4900652;29;20060;-84
2022/01/19 02:54:21;;;;;;;1.10;1.10;;;;;;;-9.74;78.18;99212.59;4921050;29;20560;-85
2022/01/19 02:56:53;;;;;;;1.15;1.15;;;;;;;-9.75;78.23;99205.66;4918209;29;20051;-84
2022/01/19 03:10:07;;;;;;;1.10;1.10;;;;;;;-9.60;78.55;99224.63;4927421;29;20079;-86
2022/01/19 03:12:36;;;;;;;1.00;1.00;;;;;;;-9.56;78.57;99220.03;4928287;29;20052;-86
2022/01/19 03:15:07;;;;;;;1.00;1.00;;;;;;;-9.53;78.56;99219.81;4927623;29;20052;-88
2022/01/19 03:17:34;;;;;;;1.00;1.00;;;;;;;-9.54;78.73;99211.13;4931348;29;20063;-83
2022/01/19 03:20:04;;;;;;;1.00;1.00;;;;;;;-9.54;78.84;99203.31;4933534;29;20063;-85
2022/01/19 03:22:40;;;;;;;1.10;1.10;;;;;;;-9.55;78.56;99206.00;4935922;29;20055;-81
2022/01/19 03:25:12;;;;;;;1.05;1.05;;;;;;;-9.58;78.52;99207.06;4933885;29;20088;-85
2022/01/19 03:27:40;;;;;;;1.10;1.10;;;;;;;-9.64;78.17;99197.09;4933758;29;20058;-85
2022/01/19 03:30:08;;;;;;;0.80;0.80;;;;;;;-9.66;77.96;99194.56;4933419;29;20134;-85
2022/01/19 03:32:38;;;;;;;1.10;1.10;;;;;;;-9.67;78.02;99194.66;4933592;29;20055;-85
2022/01/19 03:35:06;;;;;;;1.00;1.00;;;;;;;-9.66;78.30;99197.19;4918286;29;20058;-84
2022/01/19 03:37:34;;;;;;;1.10;1.10;;;;;;;-9.62;78.37;99195.16;4934328;29;20134;-86
2022/01/19 03:40:04;;;;;;;1.00;1.00;;;;;;;-9.60;78.25;99191.50;4934658;29;20063;-82
2022/01/19 03:42:32;;;;;;;1.00;1.00;;;;;;;-9.62;78.50;99195.16;4945233;29;20060;-83
2022/01/19 03:44:59;;;;;;;1.23;1.17;;;;;;;-9.66;78.69;99194.56;4600024;29;10000920;-84
2022/01/19 03:47:27;;;;;;;0.90;0.90;;;;;;;-9.61;78.75;99189.84;4919163;29;20388;-84
2022/01/19 03:49:55;;;;;;;1.10;1.10;;;;;;;-9.63;78.91;99191.72;4895765;29;20476;-82
2022/01/19 03:52:22;;;;;;;0.90;0.90;;;;;;;-9.66;79.05;99191.94;4911721;29;20064;-84
2022/01/19 03:54:53;;;;;;;1.10;1.10;;;;;;;-9.68;79.22;99191.22;4910867;29;20539;-82
2022/01/19 03:57:21;;;;;;;0.93;0.93;;;;;;;-9.75;79.03;99199.63;4911835;29;20131;-84
2022/01/19 03:59:48;;;;;;;1.10;1.10;;;;;;;-9.88;79.08;99197.06;4911449;29;20048;-81
2022/01/19 04:02:18;;;;;;;1.00;1.00;;;;;;;-9.92;79.32;99203.47;4910386;29;20071;-82
2022/01/19 04:04:54;;;;;;;1.00;1.00;;;;;;;-9.93;79.61;99205.22;4910095;29;20053;-85
2022/01/19 04:07:34;;;;;;;0.80;0.80;;;;;;;-9.92;79.58;99209.53;4910175;29;20060;-82
2022/01/19 04:10:04;;;;;;;1.30;1.20;;;;;;;-9.94;79.70;99221.00;4897437;29;20155;-82
2022/01/19 04:12:47;;;;;;;1.00;1.00;;;;;;;-10.01;80.02;99218.00;4913392;29;20095;-82
2022/01/19 04:15:16;;;;;;;1.05;1.05;;;;;;;-10.04;80.37;99220.84;4914026;29;20052;-84
2022/01/19 04:17:53;;;;;;;1.00;1.00;;;;;;;-10.08;80.27;99216.75;4913719;29;20054;-83
2022/01/19 04:20:25;;;;;;;1.48;1.38;;;;;;;-10.08;80.16;99221.97;4913782;29;20056;-83
2022/01/19 04:22:58;;;;;;;1.10;1.10;;;;;;;-10.17;80.40;99226.09;4914609;29;20111;-83
2022/01/19 04:25:25;;;;;;;1.00;1.00;;;;;;;-10.19;80.42;99229.75;4913459;29;20083;-83
2022/01/19 04:27:53;;;;;;;1.00;1.00;;;;;;;-10.26;80.70;99226.72;4897769;29;20108;-83
2022/01/19 04:30:27;;;;;;;1.00;1.00;;;;;;;-10.31;80.89;99227.06;4928887;29;20064;-83
2022/01/19 04:35:33;;;;;;;1.10;1.10;;;;;;;-10.36;81.28;99242.22;4928861;29;20127;-82
2022/01/19 05:03:40;;;;;;;1.40;1.30;;;;;;;-10.37;81.24;99234.50;4840156;29;20057;-83
2022/01/19 05:06:16;;;;;;;1.30;1.20;;;;;;;-10.52;81.04;99237.22;4840026;29;20560;-83
2022/01/19 05:14:09;;;;;;;1.30;1.20;;;;;;;-10.62;81.88;99230.97;4831912;29;20453;-83
2022/01/19 05:16:37;;;;;;;1.10;1.10;;;;;;;-10.63;81.99;99226.69;4831466;29;20149;-83
2022/01/19 05:19:06;;;;;;;1.30;1.20;;;;;;;-10.62;81.97;99220.53;4837046;29;20088;-83
2022/01/19 05:21:38;;;;;;;1.40;1.30;;;;;;;-10.58;81.80;99208.97;4832551;29;20058;-83
2022/01/19 05:24:11;;;;;;;1.30;1.20;;;;;;;-10.60;81.80;99208.22;4831497;29;20060;-83
2022/01/19 05:26:51;;;;;;;1.40;1.30;;;;;;;-10.69;81.67;99206.22;4826659;29;20065;-84
2022/01/19 05:29:32;;;;;;;1.20;1.20;;;;;;;-10.84;81.97;99205.50;4822061;29;20058;-86
2022/01/19 05:31:59;;;;;;;1.35;1.25;;;;;;;-10.92;82.30;99197.38;4831756;29;20454;-84
2022/01/19 05:34:26;;;;;;;1.30;1.20;;;;;;;-10.99;82.71;99186.50;4856403;29;20422;-85
2022/01/19 05:37:04;;;;;;;1.35;1.25;;;;;;;-11.05;82.93;99192.16;4859147;29;20053;-85
2022/01/19 05:40:00;;;;;;;1.25;1.20;;;;;;;-11.13;83.38;99184.03;4811297;29;20715;-84
2022/01/19 05:42:49;;;;;;;1.50;1.40;;;;;;;-11.17;83.49;99187.75;4824733;29;20058;-85
2022/01/19 05:45:17;;;;;;;1.27;1.20;;;;;;;-11.24;83.60;99195.16;4819873;29;20061;-86
2022/01/19 05:47:45;;;;;;;1.23;1.17;;;;;;;-11.27;84.00;99184.09;4836788;29;20053;-86
2022/01/19 05:50:13;;;;;;;1.30;1.20;;;;;;;-11.26;84.20;99191.81;4836836;29;20085;-88
2022/01/19 05:52:51;;;;;;;1.20;1.20;;;;;;;-11.23;84.28;99185.56;4819197;29;20050;-85
2022/01/19 05:55:19;;;;;;;1.50;1.40;;;;;;;-11.24;84.09;99189.97;4836002;29;20174;-86
2022/01/19 05:57:46;;;;;;;1.30;1.20;;;;;;;-11.15;84.17;99198.91;4805778;29;20062;-87
2022/01/19 06:00:15;;;;;;;1.30;1.20;;;;;;;-11.13;84.18;99203.09;4836623;29;20072;-88
2022/01/19 06:02:49;;;;;;;1.40;1.30;;;;;;;-11.10;83.91;99193.41;4820526;29;20180;-84
2022/01/19 06:05:35;;;;;;;1.23;1.17;;;;;;;-11.08;83.95;99199.34;4835012;29;20046;-85
2022/01/19 06:10:59;;;;;;;1.40;1.30;;;;;;;-10.99;83.71;99196.94;4822090;29;20144;-84
2022/01/19 06:13:29;;;;;;;1.40;1.30;;;;;;;-10.88;83.66;99200.63;4836052;29;20530;-83
2022/01/19 06:15:56;;;;;;;1.10;1.10;;;;;;;-10.85;83.44;99195.19;4855726;29;20519;-84
2022/01/19 06:18:24;;;;;;;1.50;1.40;;;;;;;-10.78;83.38;99196.44;4913635;29;20139;-84
2022/01/19 06:20:54;;;;;;;1.33;1.23;;;;;;;-10.64;82.90;99198.94;4935513;29;20161;-84
2022/01/19 06:23:30;;;;;;;1.40;1.30;;;;;;;-10.66;82.49;99192.97;4917059;29;20106;-86
2022/01/19 06:26:03;;;;;;;1.10;1.10;;;;;;;-10.63;82.54;99205.84;4912117;29;20052;-86
2022/01/19 06:28:31;;;;;;;1.17;1.15;;;;;;;-10.53;82.33;99209.47;4914743;29;20155;-86
2022/01/19 06:30:58;;;;;;;1.10;1.10;;;;;;;-10.57;82.16;99201.97;4592408;28;9999792;-86
2022/01/19 06:33:31;;;;;;;1.40;1.30;;;;;;;-10.59;82.11;99194.22;4915920;29;20058;-86
2022/01/19 06:35:59;;;;;;;1.50;1.40;;;;;;;-10.62;82.33;99198.84;4932381;29;20122;-87
2022/01/19 06:38:34;;;;;;;1.40;1.30;;;;;;;-10.57;82.43;99204.56;4930862;29;20573;-85
2022/01/19 06:41:04;;;;;;;1.15;1.15;;;;;;;-10.55;82.30;99200.91;4933064;29;20051;-86
2022/01/19 06:43:34;;;;;;;1.33;1.23;;;;;;;-10.57;82.50;99205.41;4930960;29;20050;-88
2022/01/19 06:46:05;;;;;;;1.48;1.38;;;;;;;-10.57;82.66;99196.75;4938294;29;20040;-84
2022/01/19 06:48:36;;;;;;;1.48;1.38;;;;;;;-10.47;82.57;99206.44;4925581;29;20631;-86
2022/01/19 06:51:07;;;;;;;1.40;1.30;;;;;;;-10.49;82.32;99202.25;4916186;29;20076;-84
2022/01/19 06:53:54;;;;;;;1.00;1.00;;;;;;;-10.47;82.26;99198.59;4917891;29;21052;-86
2022/01/19 06:56:29;;;;;;;1.50;1.40;;;;;;;-10.40;82.12;99200.81;4924887;29;20054;-85
2022/01/19 06:59:14;;;;;;;1.10;1.10;;;;;;;-10.38;82.06;99210.19;4921130;29;20427;-87
2022/01/19 07:02:13;;;;;;;1.50;1.40;;;;;;;-10.33;82.08;99209.84;4913316;29;20786;-85
2022/01/19 07:04:54;;;;;;;1.35;1.25;;;;;;;-10.32;81.76;99201.09;4930737;29;20058;-87
2022/01/19 07:07:57;;;;;;;1.42;1.33;;;;;;;-10.29;81.78;99196.47;4920025;29;20064;-87
2022/01/19 07:10:31;;;;;;;1.27;1.20;;;;;;;-10.17;81.57;99184.31;4927285;29;20512;-86
2022/01/19 07:13:00;;;;;;;1.25;1.20;;;;;;;-10.12;81.42;99184.81;4927394;29;20048;-87
2022/01/19 07:15:27;;;;;;;1.50;1.40;;;;;;;-10.08;81.20;99185.44;4894760;29;20805;-86
2022/01/19 07:17:58;;;;;;;1.35;1.25;;;;;;;-10.10;81.16;99177.72;4911457;29;20818;-87
2022/01/19 07:20:38;;;;;;;1.48;1.38;;;;;;;-10.18;81.06;99180.03;4926813;29;20075;-87
2022/01/19 07:23:06;;;;;;;1.48;1.38;;;;;;;-10.16;81.41;99183.38;4916160;29;20506;-87
2022/01/19 07:25:33;;;;;;;1.20;1.20;;;;;;;-10.22;81.34;99169.94;4924640;29;20114;-86
2022/01/19 07:28:01;;;;;;;1.58;1.48;;;;;;;-10.18;81.40;99187.03;4916633;29;20115;-86
2022/01/19 07:30:32;;;;;;;1.23;1.15;;;;;;;-10.13;81.36;99177.91;4919104;29;20055;-85
2022/01/19 07:33:01;;;;;;;1.33;1.23;;;;;;;-10.15;81.24;99176.34;4921250;29;20050;-85
2022/01/19 07:35:28;;;;;;;1.15;1.15;;;;;;;-10.19;81.28;99177.53;4922339;29;20570;-83
2022/01/19 07:37:56;;;;;;;1.40;1.30;;;;;;;-10.29;81.54;99161.72;4926669;29;20051;-85
2022/01/19 07:40:25;;;;;;;1.13;1.13;;;;;;;-10.29;81.54;99152.13;4921625;29;20098;-86
2022/01/19 07:42:53;;;;;;;1.30;1.20;;;;;;;-10.21;81.34;99151.53;4914347;29;20098;-85
2022/01/19 07:45:50;;;;;;;1.00;1.00;;;;;;;-10.25;81.64;99143.09;4852347;29;20048;-85
2022/01/19 07:48:53;;;;;;;1.42;1.33;;;;;;;-10.07;81.44;99156.63;4837568;29;20464;-86
2022/01/19 07:51:59;;;;;;;1.20;1.20;;;;;;;-9.88;80.82;99143.03;4848711;29;20053;-87
2022/01/19 07:54:37;;;;;;;1.52;1.42;;;;;;;-9.77;80.52;99142.28;4863628;29;20049;-86
2022/01/19 07:57:28;;;;;;;1.50;1.40;;;;;;;-9.70;79.60;99140.88;4871479;29;20064;-85
2022/01/19 08:00:05;;;;;;;1.25;1.20;;;;;;;-9.61;79.08;99131.53;4856067;29;20083;-84
2022/01/19 08:02:43;;;;;;;1.40;1.30;;;;;;;-9.41;78.91;99128.25;4854875;29;20049;-85
2022/01/19 08:05:38;;;;;;;1.45;1.35;;;;;;;-8.83;78.00;99116.94;4853416;29;20528;-85
2022/01/19 08:08:07;;;;;;;1.40;1.30;;;;;;;-8.62;76.87;99107.41;4852060;29;20588;-86
2022/01/19 08:10:34;;;;;;;1.20;1.20;;;;;;;-8.36;75.45;99125.44;4858756;29;20066;-86
2022/01/19 08:13:03;;;;;;;1.33;1.23;;;;;;;-8.31;74.46;99125.91;4859342;29;20481;-86
2022/01/19 08:15:31;;;;;;;1.60;1.50;;;;;;;-7.85;73.61;99117.81;4858955;29;20073;-87
2022/01/19 08:18:04;;;;;;;1.50;1.40;;;;;;;-7.47;72.82;99120.84;4859027;29;20049;-86
2022/01/19 08:20:32;;;;;;;1.27;1.20;;;;;;;-7.55;71.43;99113.63;4859268;29;20072;-86
2022/01/19 08:22:59;;;;;;;1.50;1.40;;;;;;;-7.25;70.68;99125.97;4914803;29;20431;-86
2022/01/19 08:25:33;;;;;;;1.60;1.50;;;;;;;-7.06;70.03;99112.16;4932938;29;20052;-86
2022/01/19 08:28:03;;;;;;;1.45;1.35;;;;;;;-6.78;69.29;99113.25;4934828;29;20407;-86
2022/01/19 08:30:35;;;;;;;1.17;1.17;;;;;;;-6.42;69.32;99107.59;4922413;29;20060;-85
2022/01/19 08:33:02;;;;;;;1.20;1.20;;;;;;;-6.10;68.68;99107.41;4923014;29;20058;-86
2022/01/19 08:35:55;;;;;;;1.05;1.05;;;;;;;-5.89;67.22;99104.63;4935238;29;20048;-85
2022/01/19 08:38:35;;;;;;;1.17;1.17;;;;;;;-5.55;65.99;99107.66;4939568;29;20044;-85
2022/01/19 08:41:13;;;;;;;1.50;1.40;;;;;;;-5.79;65.19;99109.88;4941608;29;20087;-86
2022/01/19 08:43:42;;;;;;;1.10;1.10;;;;;;;-5.37;65.31;99106.94;4939505;29;20043;-86
2022/01/19 08:46:10;;;;;;;1.50;1.40;;;;;;;-5.43;64.06;99105.72;4936487;29;20051;-86
2022/01/19 08:49:16;;;;;;;1.33;1.25;;;;;;;-5.06;64.08;99102.34;4917961;29;20058;-86
2022/01/19 08:52:04;;;;;;;1.15;1.15;;;;;;;-4.61;62.89;99089.31;4925918;29;20116;-86
2022/01/19 08:54:37;;;;;;;1.20;1.20;;;;;;;-4.82;62.20;99093.94;4937119;29;20222;-86
2022/01/19 08:57:10;;;;;;;1.13;1.13;;;;;;;-4.66;62.11;99082.78;4936260;29;20048;-86
2022/01/19 08:59:37;;;;;;;1.20;1.20;;;;;;;-3.99;61.92;99088.66;4937017;29;20048;-86
2022/01/19 09:02:09;;;;;;;1.10;1.10;;;;;;;-3.62;60.42;99088.53;4938190;29;20143;-86
2022/01/19 09:04:37;;;;;;;1.15;1.15;;;;;;;-3.25;59.24;99079.56;4936497;29;20084;-86
2022/01/19 09:07:04;;;;;;;1.10;1.10;;;;;;;-3.90;58.42;99079.03;4937078;29;20047;-86
2022/01/19 09:09:34;;;;;;;1.08;1.08;;;;;;;-3.85;58.26;99076.75;4937176;29;20054;-86
2022/01/19 09:12:04;;;;;;;1.10;1.10;;;;;;;-4.01;58.27;99066.91;4936298;29;20063;-86
2022/01/19 09:14:32;;;;;;;1.10;1.10;;;;;;;-3.70;58.05;99075.25;4936568;29;20051;-85
2022/01/19 09:16:59;;;;;;;1.00;1.00;;;;;;;-3.42;58.31;99070.69;4936989;29;20475;-85
2022/01/19 09:19:27;;;;;;;1.05;1.05;;;;;;;-3.42;57.50;99061.94;4936933;29;20110;-85
2022/01/19 09:21:55;;;;;;;1.05;1.05;;;;;;;-3.47;56.92;99064.22;4936281;29;20043;-85
2022/01/19 09:24:22;;;;;;;1.08;1.08;;;;;;;-3.47;56.81;99067.69;4927693;29;20075;-84
2022/01/19 09:26:58;;;;;;;1.17;1.17;;;;;;;-3.68;56.39;99065.38;4945736;29;20095;-84
2022/01/19 09:29:28;;;;;;;1.20;1.20;;;;;;;-3.88;57.44;99062.06;4958834;29;20056;-85
2022/01/19 09:31:57;;;;;;;1.10;1.10;;;;;;;-3.73;58.18;99065.00;4935216;29;20094;-85
2022/01/19 09:34:27;;;;;;;1.00;1.00;;;;;;;-3.18;57.34;99063.94;4940765;29;20054;-84
2022/01/19 09:36:57;;;;;;;1.15;1.15;;;;;;;-1.88;55.43;99058.34;4940484;29;20090;-85
2022/01/19 09:39:25;;;;;;;1.42;1.33;;;;;;;-1.27;53.78;99052.72;4935155;29;20215;-86
2022/01/19 09:41:55;;;;;;;1.10;1.10;;;;;;;-1.22;51.94;99045.09;4935577;29;20047;-86
2022/01/19 09:44:24;;;;;;;1.05;1.05;;;;;;;-2.52;52.89;99059.84;4936704;29;20931;-87
2022/01/19 09:46:52;;;;;;;1.45;1.35;;;;;;;-2.95;54.07;99053.69;4935895;29;20055;-87
2022/01/19 09:49:21;;;;;;;1.10;1.10;;;;;;;-3.16;54.97;99054.91;4936852;29;20059;-87
2022/01/19 09:51:54;;;;;;;1.27;1.20;;;;;;;-2.87;54.47;99051.09;4918888;29;20056;-86
2022/01/19 09:54:23;;;;;;;1.50;1.40;;;;;;;-2.25;53.99;99046.38;4935874;29;20099;-86
2022/01/19 09:56:51;;;;;;;1.38;1.27;;;;;;;-1.83;53.13;99053.38;4935303;29;20125;-86
2022/01/19 09:59:19;;;;;;;1.48;1.38;;;;;;;-1.68;52.12;99056.22;4935441;29;20546;-85
2022/01/19 10:02:08;;;;;;;1.40;1.30;;;;;;;-0.82;50.89;99046.84;4919915;29;20055;-84
2022/01/19 10:04:47;;;;;;;1.38;1.27;;;;;;;-0.92;50.36;99059.47;4923984;29;20054;-86
2022/01/19 10:07:21;;;;;;;1.55;1.45;;;;;;;-0.72;50.71;99066.03;4922294;29;20059;-87
2022/01/19 10:10:01;;;;;;;1.40;1.30;;;;;;;-1.01;49.80;99058.66;4916644;29;20052;-85
2022/01/19 10:18:21;;;;;;;1.58;1.48;;;;;;;-1.23;50.70;99051.41;4922292;29;20068;-86
2022/01/19 10:21:05;;;;;;;1.27;1.20;;;;;;;-0.91;51.12;99056.66;4921935;29;20051;-86
2022/01/19 10:23:37;;;;;;;1.00;1.00;;;;;;;-1.59;51.70;99052.59;4927055;29;20059;-85
2022/01/19 10:26:08;;;;;;;1.08;1.08;;;;;;;-2.11;52.88;99049.38;4919167;29;20052;-83
2022/01/19 10:29:03;;;;;;;1.27;1.20;;;;;;;-1.83;53.18;99049.91;4929262;29;20048;-85
2022/01/19 10:31:32;;;;;;;1.10;1.10;;;;;;;-1.98;52.99;99049.72;4931233;29;20146;-86
2022/01/19 10:34:16;;;;;;;1.30;1.20;;;;;;;-1.87;53.56;99046.78;4916498;29;20060;-88
2022/01/19 10:36:49;;;;;;;1.20;1.20;;;;;;;-1.36;52.64;99042.16;4926430;29;20519;-85
2022/01/19 10:39:18;;;;;;;1.13;1.13;;;;;;;-1.61;53.08;99043.16;4916320;29;20060;-84
2022/01/19 10:42:07;;;;;;;1.40;1.30;;;;;;;-1.11;52.64;99042.13;4924441;29;20051;-85
2022/01/19 10:44:37;;;;;;;1.40;1.30;;;;;;;-0.06;50.44;99034.72;4915866;29;20052;-84
2022/01/19 10:48:00;;;;;;;1.48;1.38;;;;;;;1.43;47.80;99025.22;4925411;29;20111;-85
2022/01/19 10:50:31;;;;;;;1.80;1.70;;;;;;;2.20;46.33;99012.34;4860457;29;20057;-86
2022/01/19 10:53:08;;;;;;;1.73;1.63;;;;;;;2.45;44.05;99007.47;4878391;29;20076;-87
2022/01/19 10:55:44;;;;;;;1.90;1.80;;;;;;;2.10;44.65;99002.03;4874179;29;20521;-84
2022/01/19 10:58:16;;;;;;;1.70;1.60;;;;;;;1.94;44.17;99011.06;4873784;29;20053;-86
2022/01/19 11:00:51;;;;;;;1.40;1.30;;;;;;;1.08;45.28;99010.84;4876482;29;20139;-85
2022/01/19 11:03:23;;;;;;;1.08;1.08;;;;;;;-0.47;49.24;99004.97;4845878;29;20097;-84
2022/01/19 11:05:52;;;;;;;1.10;1.10;;;;;;;-0.84;50.96;99016.22;4841655;29;20087;-86
2022/01/19 11:08:21;;;;;;;1.00;1.00;;;;;;;-1.61;51.49;99027.28;4869950;29;20104;-85
2022/01/19 11:10:54;;;;;;;0.70;0.70;;;;;;;-1.99;52.60;99019.00;4857548;29;20079;-84
2022/01/19 11:13:31;;;;;;;0.90;0.90;;;;;;;-2.53;53.88;99010.59;4873530;29;20513;-85
2022/01/19 11:16:01;;;;;;;1.10;1.10;;;;;;;-2.24;54.26;99020.78;4859003;29;20514;-84
2022/01/19 11:18:30;;;;;;;0.90;0.90;;;;;;;-2.40;54.50;99017.09;4874587;29;20124;-85
2022/01/19 11:21:03;;;;;;;0.85;0.85;;;;;;;-3.14;55.10;99015.13;4869256;29;20097;-84
2022/01/19 11:24:00;;;;;;;1.00;1.00;;;;;;;-3.77;56.15;99016.19;4868647;29;20524;-84
2022/01/19 11:26:32;;;;;;;1.00;1.00;;;;;;;-4.19;57.39;99016.81;4930032;29;20127;-83
2022/01/19 11:29:18;;;;;;;0.90;0.90;;;;;;;-4.47;58.18;99018.66;4932138;29;20423;-85
2022/01/19 11:31:47;;;;;;;1.00;1.00;;;;;;;-4.72;59.57;99009.66;4924675;29;20052;-85
2022/01/19 11:34:14;;;;;;;0.70;0.70;;;;;;;-4.68;59.51;99005.75;4933986;29;20434;-84
2022/01/19 11:36:43;;;;;;;0.90;0.90;;;;;;;-5.09;60.25;99002.59;4929728;29;20055;-84
2022/01/19 11:39:20;;;;;;;0.88;0.88;;;;;;;-5.34;61.10;98993.53;4925280;29;20043;-83
2022/01/19 11:41:58;;;;;;;1.00;1.00;;;;;;;-5.43;62.05;98989.97;4934772;29;20150;-83
2022/01/19 11:44:32;;;;;;;1.02;1.02;;;;;;;-5.18;61.77;99000.84;4933241;29;20055;-85
2022/01/19 11:47:13;;;;;;;0.90;0.90;;;;;;;-5.36;61.63;98995.50;4927794;29;20103;-82
2022/01/19 11:49:52;;;;;;;0.77;0.77;;;;;;;-5.32;62.01;98999.50;4919281;29;20056;-82
2022/01/19 11:52:24;;;;;;;0.70;0.70;;;;;;;-5.62;62.11;98984.75;4915365;29;20063;-81
2022/01/19 11:55:17;;;;;;;0.75;0.75;;;;;;;-5.87;63.29;98987.03;4924803;29;20538;-81
2022/01/19 11:57:47;;;;;;;0.90;0.90;;;;;;;-5.90;63.72;98987.28;4923650;29;20060;-80
2022/01/19 12:00:27;;;;;;;0.65;0.65;;;;;;;-5.84;64.06;98985.94;4929795;29;20056;-82
2022/01/19 12:02:57;;;;;;;0.70;0.70;;;;;;;-5.57;64.15;98988.66;4923721;29;20067;-82
2022/01/19 12:05:45;;;;;;;0.90;0.90;;;;;;;-5.42;63.18;98982.91;4920041;29;20055;-80
2022/01/19 12:08:18;;;;;;;0.73;0.73;;;;;;;-5.74;64.22;98973.59;4929498;29;20047;-80
2022/01/19 12:10:49;;;;;;;0.90;0.90;;;;;;;-5.97;64.71;98968.69;4918430;29;20323;-81
2022/01/19 12:19:08;;;;;;;0.70;0.70;;;;;;;-5.83;64.43;98963.91;4912977;29;20052;-81
2022/01/19 12:21:48;;;;;;;0.60;0.60;;;;;;;-5.97;63.78;98970.47;4929200;29;20103;-82
2022/01/19 12:25:05;;;;;;;0.70;0.70;;;;;;;-6.04;63.68;98967.56;4930231;29;20054;-81
2022/01/19 12:27:34;;;;;;;0.60;0.60;;;;;;;-6.01;64.06;98962.03;4906186;29;20065;-83
2022/01/19 12:30:07;;;;;;;0.70;0.70;;;;;;;-5.89;63.96;98957.44;4891527;29;20066;-83
2022/01/19 12:32:46;;;;;;;1.00;1.00;;;;;;;-5.38;63.34;98966.72;4915316;29;20067;-83
2022/01/19 12:35:31;;;;;;;1.50;1.40;;;;;;;-3.98;59.29;98967.22;4890470;29;20493;-82
2022/01/19 12:37:59;;;;;;;1.20;1.20;;;;;;;-3.35;57.16;98958.25;4892952;29;20063;-82
2022/01/19 12:40:41;;;;;;;0.80;0.80;;;;;;;-4.10;57.92;98968.47;4915802;29;20056;-82
2022/01/19 12:43:29;;;;;;;0.90;0.90;;;;;;;-5.05;60.48;98956.59;4915693;29;20143;-82
2022/01/19 12:45:57;;;;;;;0.60;0.60;;;;;;;-5.48;61.95;98947.50;4894176;29;20052;-82
2022/01/19 12:48:48;;;;;;;0.80;0.80;;;;;;;-5.76;63.43;98939.56;4886378;29;20088;-83
2022/01/19 12:51:39;;;;;;;0.75;0.75;;;;;;;-5.92;63.77;98948.03;4899588;29;20192;-82
2022/01/19 12:54:13;;;;;;;0.80;0.80;;;;;;;-6.03;64.33;98955.25;4897110;29;20095;-84
2022/01/19 12:57:01;;;;;;;0.63;0.63;;;;;;;-6.14;65.19;98959.69;4896661;29;20105;-84
2022/01/19 12:59:31;;;;;;;0.70;0.70;;;;;;;-6.21;65.51;98945.44;4896899;29;20125;-84
2022/01/19 13:01:59;;;;;;;0.73;0.73;;;;;;;-6.04;65.41;98938.66;4905459;29;20056;-83
2022/01/19 13:04:29;;;;;;;0.70;0.70;;;;;;;-5.88;64.90;98948.56;4920046;29;20507;-85
2022/01/19 13:07:17;;;;;;;0.80;0.80;;;;;;;-5.88;65.08;98943.31;4921901;29;20055;-84
2022/01/19 13:10:10;;;;;;;0.63;0.63;;;;;;;-6.00;65.94;98932.16;4921726;29;20439;-85
2022/01/19 13:13:29;;;;;;;0.90;0.90;;;;;;;-6.08;66.20;98936.47;4927135;29;20082;-81
2022/01/19 13:15:51;;;;;;;0.65;0.65;;;;;;;-6.52;66.50;98931.63;4911000;29;20052;-82
2022/01/19 13:18:36;;;;;;;0.80;0.80;;;;;;;-6.77;67.49;98943.50;4916604;29;20492;-82
2022/01/19 13:21:07;;;;;;;;;;;;;;;-6.80;67.85;98941.13;4925633;29;20198;-82
2022/01/19 13:23:39;;;;;;;0.80;0.80;;;;;;;-6.68;67.67;98934.81;4923576;29;20303;-82
2022/01/19 13:26:10;;;;;;;0.70;0.70;;;;;;;-6.77;67.89;98940.88;4916023;29;20060;-82
2022/01/19 13:28:37;;;;;;;0.60;0.60;;;;;;;-6.81;67.90;98936.84;4916975;29;20055;-83